sensor_id;sensor_type;location;lat;lon;timestamp;temperature;humidity
41876;DHT22;27555;50.808;4.402;2023-04-05T00:00:13;6.00;93.60
41876;DHT22;27555;50.808;4.402;2023-04-05T00:02:39;5.90;93.70
41876;DHT22;27555;50.808;4.402;2023-04-05T00:05:06;5.90;93.80
41876;DHT22;27555;50.808;4.402;2023-04-05T00:07:33;5.80;93.80
41876;DHT22;27555;50.808;4.402;2023-04-05T00:09:59;5.80;93.70
41876;DHT22;27555;50.808;4.402;2023-04-05T00:12:25;5.90;93.80
41876;DHT22;27555;50.808;4.402;2023-04-05T00:14:51;5.90;93.60
41876;DHT22;27555;50.808;4.402;2023-04-05T00:17:17;5.90;93.60
41876;DHT22;27555;50.808;4.402;2023-04-05T00:19:42;5.80;93.60
41876;DHT22;27555;50.808;4.402;2023-04-05T00:22:09;5.70;93.90
41876;DHT22;27555;50.808;4.402;2023-04-05T00:24:36;5.60;94.00
41876;DHT22;27555;50.808;4.402;2023-04-05T00:27:03;5.60;93.90
41876;DHT22;27555;50.808;4.402;2023-04-05T00:29:29;5.50;94.00
41876;DHT22;27555;50.808;4.402;2023-04-05T00:31:55;5.50;94.00
41876;DHT22;27555;50.808;4.402;2023-04-05T00:34:21;5.50;94.00
41876;DHT22;27555;50.808;4.402;2023-04-05T00:36:46;5.50;94.10
41876;DHT22;27555;50.808;4.402;2023-04-05T00:39:12;5.50;94.10
41876;DHT22;27555;50.808;4.402;2023-04-05T00:41:37;5.50;94.00
41876;DHT22;27555;50.808;4.402;2023-04-05T00:44:05;5.40;94.20
41876;DHT22;27555;50.808;4.402;2023-04-05T00:46:35;5.50;94.20
41876;DHT22;27555;50.808;4.402;2023-04-05T00:49:02;5.40;94.00
41876;DHT22;27555;50.808;4.402;2023-04-05T00:51:29;5.40;94.00
41876;DHT22;27555;50.808;4.402;2023-04-05T00:53:55;5.30;94.10
41876;DHT22;27555;50.808;4.402;2023-04-05T00:56:21;5.30;94.20
41876;DHT22;27555;50.808;4.402;2023-04-05T00:58:47;5.30;94.40
41876;DHT22;27555;50.808;4.402;2023-04-05T01:01:18;5.30;94.50
41876;DHT22;27555;50.808;4.402;2023-04-05T01:03:48;5.40;94.60
41876;DHT22;27555;50.808;4.402;2023-04-05T01:09:21;5.30;94.30
41876;DHT22;27555;50.808;4.402;2023-04-05T01:11:51;5.20;94.50
41876;DHT22;27555;50.808;4.402;2023-04-05T01:14:20;5.10;94.60
41876;DHT22;27555;50.808;4.402;2023-04-05T01:16:45;5.00;94.80
41876;DHT22;27555;50.808;4.402;2023-04-05T01:19:14;5.00;94.90
41876;DHT22;27555;50.808;4.402;2023-04-05T01:25:07;5.00;95.10
41876;DHT22;27555;50.808;4.402;2023-04-05T01:30:43;5.00;95.00
41876;DHT22;27555;50.808;4.402;2023-04-05T01:33:16;5.00;95.10
41876;DHT22;27555;50.808;4.402;2023-04-05T01:38:29;4.90;95.30
41876;DHT22;27555;50.808;4.402;2023-04-05T01:40:56;4.90;95.40
41876;DHT22;27555;50.808;4.402;2023-04-05T01:43:22;4.90;95.50
41876;DHT22;27555;50.808;4.402;2023-04-05T01:45:47;4.90;95.50
41876;DHT22;27555;50.808;4.402;2023-04-05T01:48:13;4.90;95.70
41876;DHT22;27555;50.808;4.402;2023-04-05T01:50:39;4.90;95.40
41876;DHT22;27555;50.808;4.402;2023-04-05T01:53:08;4.90;95.20
41876;DHT22;27555;50.808;4.402;2023-04-05T01:55:33;4.80;95.10
41876;DHT22;27555;50.808;4.402;2023-04-05T01:57:59;4.80;95.30
41876;DHT22;27555;50.808;4.402;2023-04-05T02:00:25;4.70;95.40
41876;DHT22;27555;50.808;4.402;2023-04-05T02:02:52;4.70;95.20
41876;DHT22;27555;50.808;4.402;2023-04-05T02:05:17;4.70;95.10
41876;DHT22;27555;50.808;4.402;2023-04-05T02:07:43;4.70;95.00
41876;DHT22;27555;50.808;4.402;2023-04-05T02:10:09;4.70;94.80
41876;DHT22;27555;50.808;4.402;2023-04-05T02:12:34;4.70;95.20
41876;DHT22;27555;50.808;4.402;2023-04-05T02:15:00;4.60;95.30
41876;DHT22;27555;50.808;4.402;2023-04-05T02:17:26;4.60;95.30
41876;DHT22;27555;50.808;4.402;2023-04-05T02:19:58;4.50;95.30
41876;DHT22;27555;50.808;4.402;2023-04-05T02:22:27;4.60;95.40
41876;DHT22;27555;50.808;4.402;2023-04-05T02:24:52;4.60;95.10
41876;DHT22;27555;50.808;4.402;2023-04-05T02:27:18;4.60;95.00
41876;DHT22;27555;50.808;4.402;2023-04-05T02:29:43;4.60;95.00
41876;DHT22;27555;50.808;4.402;2023-04-05T02:32:09;4.50;95.20
41876;DHT22;27555;50.808;4.402;2023-04-05T02:34:35;4.50;95.30
41876;DHT22;27555;50.808;4.402;2023-04-05T02:37:02;4.40;95.30
41876;DHT22;27555;50.808;4.402;2023-04-05T02:39:28;4.40;95.40
41876;DHT22;27555;50.808;4.402;2023-04-05T02:41:54;4.40;95.50
41876;DHT22;27555;50.808;4.402;2023-04-05T02:44:21;4.30;95.60
41876;DHT22;27555;50.808;4.402;2023-04-05T02:46:47;4.30;95.60
41876;DHT22;27555;50.808;4.402;2023-04-05T02:49:12;4.40;95.70
41876;DHT22;27555;50.808;4.402;2023-04-05T02:51:38;4.30;95.70
41876;DHT22;27555;50.808;4.402;2023-04-05T02:54:03;4.30;95.80
41876;DHT22;27555;50.808;4.402;2023-04-05T02:56:29;4.30;95.80
41876;DHT22;27555;50.808;4.402;2023-04-05T02:58:54;4.30;95.80
41876;DHT22;27555;50.808;4.402;2023-04-05T03:01:20;4.30;95.80
41876;DHT22;27555;50.808;4.402;2023-04-05T03:03:46;4.20;96.00
41876;DHT22;27555;50.808;4.402;2023-04-05T03:06:12;4.10;96.20
41876;DHT22;27555;50.808;4.402;2023-04-05T03:08:39;4.20;96.30
41876;DHT22;27555;50.808;4.402;2023-04-05T03:11:09;4.30;96.20
41876;DHT22;27555;50.808;4.402;2023-04-05T03:13:35;4.20;96.10
41876;DHT22;27555;50.808;4.402;2023-04-05T03:16:04;4.10;96.10
41876;DHT22;27555;50.808;4.402;2023-04-05T03:18:30;4.20;96.10
41876;DHT22;27555;50.808;4.402;2023-04-05T03:20:56;4.20;96.10
41876;DHT22;27555;50.808;4.402;2023-04-05T03:23:28;4.10;96.20
41876;DHT22;27555;50.808;4.402;2023-04-05T03:26:00;4.10;96.40
41876;DHT22;27555;50.808;4.402;2023-04-05T03:28:28;4.10;96.40
41876;DHT22;27555;50.808;4.402;2023-04-05T03:30:54;4.10;96.40
41876;DHT22;27555;50.808;4.402;2023-04-05T03:33:20;4.00;96.40
41876;DHT22;27555;50.808;4.402;2023-04-05T03:35:46;4.00;96.30
41876;DHT22;27555;50.808;4.402;2023-04-05T03:38:12;4.00;96.30
41876;DHT22;27555;50.808;4.402;2023-04-05T03:40:38;4.00;96.20
41876;DHT22;27555;50.808;4.402;2023-04-05T03:43:04;4.00;96.20
41876;DHT22;27555;50.808;4.402;2023-04-05T03:45:30;4.00;96.20
41876;DHT22;27555;50.808;4.402;2023-04-05T03:47:56;3.90;96.30
41876;DHT22;27555;50.808;4.402;2023-04-05T03:50:22;3.90;96.50
41876;DHT22;27555;50.808;4.402;2023-04-05T03:52:48;3.80;96.50
41876;DHT22;27555;50.808;4.402;2023-04-05T03:55:13;3.90;96.60
41876;DHT22;27555;50.808;4.402;2023-04-05T03:57:41;3.90;96.50
41876;DHT22;27555;50.808;4.402;2023-04-05T04:00:08;3.90;96.50
41876;DHT22;27555;50.808;4.402;2023-04-05T04:02:44;3.90;96.50
41876;DHT22;27555;50.808;4.402;2023-04-05T04:05:11;3.90;96.50
41876;DHT22;27555;50.808;4.402;2023-04-05T04:07:36;3.80;96.60
41876;DHT22;27555;50.808;4.402;2023-04-05T04:10:04;3.80;96.70
41876;DHT22;27555;50.808;4.402;2023-04-05T04:12:29;3.80;96.80
41876;DHT22;27555;50.808;4.402;2023-04-05T04:14:55;3.80;96.80
41876;DHT22;27555;50.808;4.402;2023-04-05T04:17:28;3.80;96.70
41876;DHT22;27555;50.808;4.402;2023-04-05T04:19:55;3.70;96.80
41876;DHT22;27555;50.808;4.402;2023-04-05T04:22:22;3.70;96.90
41876;DHT22;27555;50.808;4.402;2023-04-05T04:24:48;3.70;96.90
41876;DHT22;27555;50.808;4.402;2023-04-05T04:27:15;3.70;97.00
41876;DHT22;27555;50.808;4.402;2023-04-05T04:29:44;3.70;97.10
41876;DHT22;27555;50.808;4.402;2023-04-05T04:32:14;3.70;97.10
41876;DHT22;27555;50.808;4.402;2023-04-05T04:34:40;3.60;97.20
41876;DHT22;27555;50.808;4.402;2023-04-05T04:37:14;3.70;97.30
41876;DHT22;27555;50.808;4.402;2023-04-05T04:39:47;3.70;97.30
41876;DHT22;27555;50.808;4.402;2023-04-05T04:42:14;3.60;97.20
41876;DHT22;27555;50.808;4.402;2023-04-05T04:44:44;3.60;97.30
41876;DHT22;27555;50.808;4.402;2023-04-05T04:47:10;3.70;97.30
41876;DHT22;27555;50.808;4.402;2023-04-05T04:49:41;3.60;97.30
41876;DHT22;27555;50.808;4.402;2023-04-05T04:52:06;3.60;97.40
41876;DHT22;27555;50.808;4.402;2023-04-05T04:54:33;3.60;97.50
41876;DHT22;27555;50.808;4.402;2023-04-05T04:56:59;3.50;97.60
41876;DHT22;27555;50.808;4.402;2023-04-05T04:59:26;3.60;97.70
41876;DHT22;27555;50.808;4.402;2023-04-05T05:01:52;3.60;97.70
41876;DHT22;27555;50.808;4.402;2023-04-05T05:04:17;3.50;97.70
41876;DHT22;27555;50.808;4.402;2023-04-05T05:06:43;3.60;97.60
41876;DHT22;27555;50.808;4.402;2023-04-05T05:09:09;3.70;97.60
41876;DHT22;27555;50.808;4.402;2023-04-05T05:11:34;3.70;97.50
41876;DHT22;27555;50.808;4.402;2023-04-05T05:14:00;3.60;97.50
41876;DHT22;27555;50.808;4.402;2023-04-05T05:16:25;3.50;97.70
41876;DHT22;27555;50.808;4.402;2023-04-05T05:18:52;3.50;97.70
41876;DHT22;27555;50.808;4.402;2023-04-05T05:21:18;3.50;97.80
41876;DHT22;27555;50.808;4.402;2023-04-05T05:23:43;3.50;97.90
41876;DHT22;27555;50.808;4.402;2023-04-05T05:26:09;3.60;97.90
41876;DHT22;27555;50.808;4.402;2023-04-05T05:28:34;3.60;97.90
41876;DHT22;27555;50.808;4.402;2023-04-05T05:31:02;3.80;97.60
41876;DHT22;27555;50.808;4.402;2023-04-05T05:33:28;3.80;97.60
41876;DHT22;27555;50.808;4.402;2023-04-05T05:35:53;3.70;97.70
41876;DHT22;27555;50.808;4.402;2023-04-05T05:38:19;3.80;97.70
41876;DHT22;27555;50.808;4.402;2023-04-05T05:40:45;3.80;97.60
41876;DHT22;27555;50.808;4.402;2023-04-05T05:43:10;3.80;97.80
41876;DHT22;27555;50.808;4.402;2023-04-05T05:45:36;3.70;97.90
41876;DHT22;27555;50.808;4.402;2023-04-05T05:48:02;3.80;97.80
41876;DHT22;27555;50.808;4.402;2023-04-05T05:50:27;3.80;97.70
41876;DHT22;27555;50.808;4.402;2023-04-05T05:53:00;3.80;97.70
41876;DHT22;27555;50.808;4.402;2023-04-05T05:55:25;3.80;97.70
41876;DHT22;27555;50.808;4.402;2023-04-05T05:57:51;3.90;97.50
41876;DHT22;27555;50.808;4.402;2023-04-05T06:00:18;4.00;97.50
41876;DHT22;27555;50.808;4.402;2023-04-05T06:02:44;4.00;97.50
41876;DHT22;27555;50.808;4.402;2023-04-05T06:05:10;4.00;97.60
41876;DHT22;27555;50.808;4.402;2023-04-05T06:07:36;4.10;97.40
41876;DHT22;27555;50.808;4.402;2023-04-05T06:10:06;4.10;97.30
41876;DHT22;27555;50.808;4.402;2023-04-05T06:12:32;4.10;97.30
41876;DHT22;27555;50.808;4.402;2023-04-05T06:14:59;4.20;97.30
41876;DHT22;27555;50.808;4.402;2023-04-05T06:17:25;4.40;97.30
41876;DHT22;27555;50.808;4.402;2023-04-05T06:19:51;4.40;97.20
41876;DHT22;27555;50.808;4.402;2023-04-05T06:22:16;4.40;97.30
41876;DHT22;27555;50.808;4.402;2023-04-05T06:24:43;4.50;97.10
41876;DHT22;27555;50.808;4.402;2023-04-05T06:27:08;4.70;96.80
41876;DHT22;27555;50.808;4.402;2023-04-05T06:29:34;4.70;96.90
41876;DHT22;27555;50.808;4.402;2023-04-05T06:31:59;4.80;96.70
41876;DHT22;27555;50.808;4.402;2023-04-05T06:34:25;4.90;96.60
41876;DHT22;27555;50.808;4.402;2023-04-05T06:36:51;5.00;96.50
41876;DHT22;27555;50.808;4.402;2023-04-05T06:39:16;5.10;96.60
41876;DHT22;27555;50.808;4.402;2023-04-05T06:41:42;5.20;96.60
41876;DHT22;27555;50.808;4.402;2023-04-05T06:44:08;5.30;96.50
41876;DHT22;27555;50.808;4.402;2023-04-05T06:46:33;5.40;96.40
41876;DHT22;27555;50.808;4.402;2023-04-05T06:48:59;5.50;96.10
41876;DHT22;27555;50.808;4.402;2023-04-05T06:51:25;5.60;96.10
41876;DHT22;27555;50.808;4.402;2023-04-05T06:53:53;5.70;96.00
41876;DHT22;27555;50.808;4.402;2023-04-05T06:56:19;5.90;95.90
41876;DHT22;27555;50.808;4.402;2023-04-05T06:58:44;6.00;95.90
41876;DHT22;27555;50.808;4.402;2023-04-05T07:01:10;6.10;95.90
41876;DHT22;27555;50.808;4.402;2023-04-05T07:03:36;6.20;95.90
41876;DHT22;27555;50.808;4.402;2023-04-05T07:06:02;6.40;95.90
41876;DHT22;27555;50.808;4.402;2023-04-05T07:08:30;6.50;95.80
41876;DHT22;27555;50.808;4.402;2023-04-05T07:10:56;6.70;95.60
41876;DHT22;27555;50.808;4.402;2023-04-05T07:13:23;6.90;95.10
41876;DHT22;27555;50.808;4.402;2023-04-05T07:15:49;7.00;95.20
41876;DHT22;27555;50.808;4.402;2023-04-05T07:18:15;7.30;95.00
41876;DHT22;27555;50.808;4.402;2023-04-05T07:20:41;7.50;94.70
41876;DHT22;27555;50.808;4.402;2023-04-05T07:23:07;8.10;94.30
41876;DHT22;27555;50.808;4.402;2023-04-05T07:25:33;9.50;93.80
41876;DHT22;27555;50.808;4.402;2023-04-05T07:27:59;11.10;92.90
41876;DHT22;27555;50.808;4.402;2023-04-05T07:30:27;12.60;90.80
41876;DHT22;27555;50.808;4.402;2023-04-05T07:32:53;14.00;86.90
41876;DHT22;27555;50.808;4.402;2023-04-05T07:35:19;15.20;81.90
41876;DHT22;27555;50.808;4.402;2023-04-05T07:37:44;16.20;77.20
41876;DHT22;27555;50.808;4.402;2023-04-05T07:40:10;17.00;74.70
41876;DHT22;27555;50.808;4.402;2023-04-05T07:42:36;17.70;73.10
41876;DHT22;27555;50.808;4.402;2023-04-05T07:45:02;18.40;71.80
41876;DHT22;27555;50.808;4.402;2023-04-05T07:47:28;19.00;69.70
41876;DHT22;27555;50.808;4.402;2023-04-05T07:49:53;19.40;68.60
41876;DHT22;27555;50.808;4.402;2023-04-05T07:52:19;19.90;67.00
41876;DHT22;27555;50.808;4.402;2023-04-05T07:54:45;20.30;66.20
41876;DHT22;27555;50.808;4.402;2023-04-05T07:57:17;20.70;63.90
41876;DHT22;27555;50.808;4.402;2023-04-05T07:59:43;20.90;63.50
41876;DHT22;27555;50.808;4.402;2023-04-05T08:02:09;21.20;63.20
41876;DHT22;27555;50.808;4.402;2023-04-05T08:04:35;21.40;62.90
41876;DHT22;27555;50.808;4.402;2023-04-05T08:07:00;21.70;61.80
41876;DHT22;27555;50.808;4.402;2023-04-05T08:09:26;21.80;60.90
41876;DHT22;27555;50.808;4.402;2023-04-05T08:11:51;21.90;59.40
41876;DHT22;27555;50.808;4.402;2023-04-05T08:14:17;21.90;58.50
41876;DHT22;27555;50.808;4.402;2023-04-05T08:16:42;22.20;58.90
41876;DHT22;27555;50.808;4.402;2023-04-05T08:19:09;22.50;57.90
41876;DHT22;27555;50.808;4.402;2023-04-05T08:21:35;22.20;57.60
41876;DHT22;27555;50.808;4.402;2023-04-05T08:24:01;22.70;56.70
41876;DHT22;27555;50.808;4.402;2023-04-05T08:26:26;22.60;56.40
41876;DHT22;27555;50.808;4.402;2023-04-05T08:28:52;22.10;56.90
41876;DHT22;27555;50.808;4.402;2023-04-05T08:31:18;21.30;57.40
41876;DHT22;27555;50.808;4.402;2023-04-05T08:33:45;20.70;56.80
41876;DHT22;27555;50.808;4.402;2023-04-05T08:36:10;19.90;57.90
41876;DHT22;27555;50.808;4.402;2023-04-05T08:38:36;20.60;57.90
41876;DHT22;27555;50.808;4.402;2023-04-05T08:41:18;20.60;57.10
41876;DHT22;27555;50.808;4.402;2023-04-05T08:44:01;21.00;58.10
41876;DHT22;27555;50.808;4.402;2023-04-05T08:46:29;20.60;57.80
41876;DHT22;27555;50.808;4.402;2023-04-05T08:48:56;21.70;57.60
41876;DHT22;27555;50.808;4.402;2023-04-05T08:51:26;22.70;56.40
41876;DHT22;27555;50.808;4.402;2023-04-05T08:53:52;23.40;55.30
41876;DHT22;27555;50.808;4.402;2023-04-05T08:56:21;23.60;55.30
41876;DHT22;27555;50.808;4.402;2023-04-05T08:59:03;23.70;55.10
41876;DHT22;27555;50.808;4.402;2023-04-05T09:01:30;23.40;55.00
41876;DHT22;27555;50.808;4.402;2023-04-05T09:04:05;23.30;55.00
41876;DHT22;27555;50.808;4.402;2023-04-05T09:06:32;23.40;55.40
41876;DHT22;27555;50.808;4.402;2023-04-05T09:08:58;23.70;54.40
41876;DHT22;27555;50.808;4.402;2023-04-05T09:11:24;24.30;54.40
41876;DHT22;27555;50.808;4.402;2023-04-05T09:13:50;24.40;53.70
41876;DHT22;27555;50.808;4.402;2023-04-05T09:16:16;24.20;53.80
41876;DHT22;27555;50.808;4.402;2023-04-05T09:18:42;23.80;54.30
41876;DHT22;27555;50.808;4.402;2023-04-05T09:21:08;23.80;54.20
41876;DHT22;27555;50.808;4.402;2023-04-05T09:23:35;23.90;54.20
41876;DHT22;27555;50.808;4.402;2023-04-05T09:26:16;24.20;53.90
41876;DHT22;27555;50.808;4.402;2023-04-05T09:28:42;24.40;53.40
41876;DHT22;27555;50.808;4.402;2023-04-05T09:31:08;24.60;53.70
41876;DHT22;27555;50.808;4.402;2023-04-05T09:33:33;25.00;53.80
41876;DHT22;27555;50.808;4.402;2023-04-05T09:36:01;25.20;53.50
41876;DHT22;27555;50.808;4.402;2023-04-05T09:38:43;25.10;53.20
41876;DHT22;27555;50.808;4.402;2023-04-05T09:41:09;22.70;53.70
41876;DHT22;27555;50.808;4.402;2023-04-05T09:43:38;22.60;54.40
41876;DHT22;27555;50.808;4.402;2023-04-05T09:46:04;22.10;54.50
41876;DHT22;27555;50.808;4.402;2023-04-05T09:48:48;21.70;54.70
41876;DHT22;27555;50.808;4.402;2023-04-05T09:51:15;22.50;54.70
41876;DHT22;27555;50.808;4.402;2023-04-05T09:56:28;23.30;54.40
41876;DHT22;27555;50.808;4.402;2023-04-05T09:59:01;23.80;53.50
41876;DHT22;27555;50.808;4.402;2023-04-05T10:01:30;24.00;53.60
41876;DHT22;27555;50.808;4.402;2023-04-05T10:03:56;24.50;53.30
41876;DHT22;27555;50.808;4.402;2023-04-05T10:06:23;25.00;53.00
41876;DHT22;27555;50.808;4.402;2023-04-05T10:08:58;25.60;52.60
41876;DHT22;27555;50.808;4.402;2023-04-05T10:11:25;25.60;52.30
41876;DHT22;27555;50.808;4.402;2023-04-05T10:13:51;25.60;52.50
41876;DHT22;27555;50.808;4.402;2023-04-05T10:16:19;25.40;52.00
41876;DHT22;27555;50.808;4.402;2023-04-05T10:18:50;23.40;52.90
41876;DHT22;27555;50.808;4.402;2023-04-05T10:21:21;23.40;53.90
41876;DHT22;27555;50.808;4.402;2023-04-05T10:23:54;24.00;53.20
41876;DHT22;27555;50.808;4.402;2023-04-05T10:26:39;24.50;52.60
41876;DHT22;27555;50.808;4.402;2023-04-05T10:29:11;24.20;53.00
41876;DHT22;27555;50.808;4.402;2023-04-05T10:31:53;22.70;53.60
41876;DHT22;27555;50.808;4.402;2023-04-05T10:34:56;23.00;53.40
41876;DHT22;27555;50.808;4.402;2023-04-05T10:38:02;23.50;53.60
41876;DHT22;27555;50.808;4.402;2023-04-05T10:40:35;24.30;53.00
41876;DHT22;27555;50.808;4.402;2023-04-05T10:43:03;24.50;52.70
41876;DHT22;27555;50.808;4.402;2023-04-05T10:45:29;23.40;53.50
41876;DHT22;27555;50.808;4.402;2023-04-05T10:48:08;23.40;53.10
41876;DHT22;27555;50.808;4.402;2023-04-05T10:50:36;23.20;53.30
41876;DHT22;27555;50.808;4.402;2023-04-05T10:53:02;24.10;53.00
41876;DHT22;27555;50.808;4.402;2023-04-05T10:55:29;24.90;52.50
41876;DHT22;27555;50.808;4.402;2023-04-05T10:57:56;25.50;51.90
41876;DHT22;27555;50.808;4.402;2023-04-05T11:00:22;25.50;51.60
41876;DHT22;27555;50.808;4.402;2023-04-05T11:02:53;24.10;52.50
41876;DHT22;27555;50.808;4.402;2023-04-05T11:05:36;24.40;52.20
41876;DHT22;27555;50.808;4.402;2023-04-05T11:08:05;25.00;51.80
41876;DHT22;27555;50.808;4.402;2023-04-05T11:10:34;25.40;51.60
41876;DHT22;27555;50.808;4.402;2023-04-05T11:18:09;24.00;51.20
41876;DHT22;27555;50.808;4.402;2023-04-05T11:20:45;24.40;51.70
41876;DHT22;27555;50.808;4.402;2023-04-05T11:23:16;25.10;51.00
41876;DHT22;27555;50.808;4.402;2023-04-05T11:26:02;25.10;50.70
41876;DHT22;27555;50.808;4.402;2023-04-05T11:28:38;24.90;50.70
41876;DHT22;27555;50.808;4.402;2023-04-05T11:36:11;24.90;51.40
41876;DHT22;27555;50.808;4.402;2023-04-05T11:38:38;25.10;51.90
41876;DHT22;27555;50.808;4.402;2023-04-05T11:43:32;24.80;51.80
41876;DHT22;27555;50.808;4.402;2023-04-05T11:46:01;25.00;52.10
41876;DHT22;27555;50.808;4.402;2023-04-05T11:48:28;24.90;51.60
41876;DHT22;27555;50.808;4.402;2023-04-05T11:50:55;24.90;51.50
41876;DHT22;27555;50.808;4.402;2023-04-05T11:53:21;24.70;51.20
41876;DHT22;27555;50.808;4.402;2023-04-05T11:55:49;24.60;51.60
41876;DHT22;27555;50.808;4.402;2023-04-05T11:58:23;25.00;50.70
41876;DHT22;27555;50.808;4.402;2023-04-05T12:01:04;24.80;50.60
41876;DHT22;27555;50.808;4.402;2023-04-05T12:03:30;24.60;50.70
41876;DHT22;27555;50.808;4.402;2023-04-05T12:05:58;23.70;51.80
41876;DHT22;27555;50.808;4.402;2023-04-05T12:08:43;23.40;52.10
41876;DHT22;27555;50.808;4.402;2023-04-05T12:11:16;23.10;52.20
41876;DHT22;27555;50.808;4.402;2023-04-05T12:13:47;23.30;52.10
41876;DHT22;27555;50.808;4.402;2023-04-05T12:16:13;22.10;53.50
41876;DHT22;27555;50.808;4.402;2023-04-05T12:18:38;22.50;53.40
41876;DHT22;27555;50.808;4.402;2023-04-05T12:21:08;22.90;52.80
41876;DHT22;27555;50.808;4.402;2023-04-05T12:23:34;22.60;53.20
41876;DHT22;27555;50.808;4.402;2023-04-05T12:26:01;22.70;52.90
41876;DHT22;27555;50.808;4.402;2023-04-05T12:28:53;22.20;54.10
41876;DHT22;27555;50.808;4.402;2023-04-05T12:31:42;21.60;54.00
41876;DHT22;27555;50.808;4.402;2023-04-05T12:34:10;20.60;54.90
41876;DHT22;27555;50.808;4.402;2023-04-05T12:36:36;20.80;54.90
41876;DHT22;27555;50.808;4.402;2023-04-05T12:39:05;19.70;55.60
41876;DHT22;27555;50.808;4.402;2023-04-05T12:41:32;17.80;57.60
41876;DHT22;27555;50.808;4.402;2023-04-05T12:43:58;17.10;58.30
41876;DHT22;27555;50.808;4.402;2023-04-05T12:49:05;16.40;59.20
41876;DHT22;27555;50.808;4.402;2023-04-05T12:51:31;15.90;59.90
41876;DHT22;27555;50.808;4.402;2023-04-05T12:53:58;15.60;60.10
41876;DHT22;27555;50.808;4.402;2023-04-05T12:56:27;15.70;59.70
41876;DHT22;27555;50.808;4.402;2023-04-05T12:58:54;15.70;60.10
41876;DHT22;27555;50.808;4.402;2023-04-05T13:01:19;16.30;59.30
41876;DHT22;27555;50.808;4.402;2023-04-05T13:03:46;16.10;60.40
41876;DHT22;27555;50.808;4.402;2023-04-05T13:06:11;16.40;60.60
41876;DHT22;27555;50.808;4.402;2023-04-05T13:08:37;16.30;59.80
41876;DHT22;27555;50.808;4.402;2023-04-05T13:11:02;15.90;60.00
41876;DHT22;27555;50.808;4.402;2023-04-05T13:13:28;16.20;59.50
41876;DHT22;27555;50.808;4.402;2023-04-05T13:15:54;16.20;58.90
41876;DHT22;27555;50.808;4.402;2023-04-05T13:18:19;16.10;59.90
41876;DHT22;27555;50.808;4.402;2023-04-05T13:20:45;16.00;59.90
41876;DHT22;27555;50.808;4.402;2023-04-05T13:23:11;16.00;60.20
41876;DHT22;27555;50.808;4.402;2023-04-05T13:25:38;15.90;60.60
41876;DHT22;27555;50.808;4.402;2023-04-05T13:28:04;16.10;59.10
41876;DHT22;27555;50.808;4.402;2023-04-05T13:30:30;16.70;59.20
41876;DHT22;27555;50.808;4.402;2023-04-05T13:32:56;16.60;58.50
41876;DHT22;27555;50.808;4.402;2023-04-05T13:35:21;16.70;58.90
41876;DHT22;27555;50.808;4.402;2023-04-05T13:37:47;16.90;58.90
41876;DHT22;27555;50.808;4.402;2023-04-05T13:40:14;16.90;59.30
41876;DHT22;27555;50.808;4.402;2023-04-05T13:42:41;17.10;59.30
41876;DHT22;27555;50.808;4.402;2023-04-05T13:45:07;16.80;58.40
41876;DHT22;27555;50.808;4.402;2023-04-05T13:47:33;15.80;59.10
41876;DHT22;27555;50.808;4.402;2023-04-05T13:49:58;15.30;61.50
41876;DHT22;27555;50.808;4.402;2023-04-05T13:52:24;15.70;60.30
41876;DHT22;27555;50.808;4.402;2023-04-05T13:54:50;16.10;59.30
41876;DHT22;27555;50.808;4.402;2023-04-05T13:57:16;16.60;59.10
41876;DHT22;27555;50.808;4.402;2023-04-05T13:59:42;17.10;57.70
41876;DHT22;27555;50.808;4.402;2023-04-05T14:02:07;17.20;58.30
41876;DHT22;27555;50.808;4.402;2023-04-05T14:04:33;16.90;59.20
41876;DHT22;27555;50.808;4.402;2023-04-05T14:06:58;16.40;59.40
41876;DHT22;27555;50.808;4.402;2023-04-05T14:09:24;16.20;60.40
41876;DHT22;27555;50.808;4.402;2023-04-05T14:11:50;16.40;60.10
41876;DHT22;27555;50.808;4.402;2023-04-05T14:14:16;16.30;59.40
41876;DHT22;27555;50.808;4.402;2023-04-05T14:16:41;15.80;60.10
41876;DHT22;27555;50.808;4.402;2023-04-05T14:19:07;15.50;60.40
41876;DHT22;27555;50.808;4.402;2023-04-05T14:21:33;15.50;60.80
41876;DHT22;27555;50.808;4.402;2023-04-05T14:23:59;16.00;60.00
41876;DHT22;27555;50.808;4.402;2023-04-05T14:26:25;16.30;59.90
41876;DHT22;27555;50.808;4.402;2023-04-05T14:28:51;16.40;60.00
41876;DHT22;27555;50.808;4.402;2023-04-05T14:31:18;16.10;60.00
41876;DHT22;27555;50.808;4.402;2023-04-05T14:33:44;15.90;59.90
41876;DHT22;27555;50.808;4.402;2023-04-05T14:36:10;15.90;60.00
41876;DHT22;27555;50.808;4.402;2023-04-05T14:38:35;16.00;60.10
41876;DHT22;27555;50.808;4.402;2023-04-05T14:41:01;15.90;60.90
41876;DHT22;27555;50.808;4.402;2023-04-05T14:43:28;15.70;61.40
41876;DHT22;27555;50.808;4.402;2023-04-05T14:45:54;15.60;61.10
41876;DHT22;27555;50.808;4.402;2023-04-05T14:48:19;15.30;61.10
41876;DHT22;27555;50.808;4.402;2023-04-05T14:50:45;15.10;62.40
41876;DHT22;27555;50.808;4.402;2023-04-05T14:53:11;15.20;61.10
41876;DHT22;27555;50.808;4.402;2023-04-05T14:55:36;15.40;60.90
41876;DHT22;27555;50.808;4.402;2023-04-05T14:58:02;15.80;61.10
41876;DHT22;27555;50.808;4.402;2023-04-05T15:00:28;15.80;61.10
41876;DHT22;27555;50.808;4.402;2023-04-05T15:02:53;15.70;61.10
41876;DHT22;27555;50.808;4.402;2023-04-05T15:05:19;15.50;61.20
41876;DHT22;27555;50.808;4.402;2023-04-05T15:07:45;15.40;61.60
41876;DHT22;27555;50.808;4.402;2023-04-05T15:10:10;15.70;60.90
41876;DHT22;27555;50.808;4.402;2023-04-05T15:12:36;15.90;61.10
41876;DHT22;27555;50.808;4.402;2023-04-05T15:15:02;15.70;60.70
41876;DHT22;27555;50.808;4.402;2023-04-05T15:17:27;15.90;61.00
41876;DHT22;27555;50.808;4.402;2023-04-05T15:19:53;15.30;62.20
41876;DHT22;27555;50.808;4.402;2023-04-05T15:22:19;15.00;62.00
41876;DHT22;27555;50.808;4.402;2023-04-05T15:24:47;14.90;62.50
41876;DHT22;27555;50.808;4.402;2023-04-05T15:27:13;15.00;62.70
41876;DHT22;27555;50.808;4.402;2023-04-05T15:29:38;14.90;62.70
41876;DHT22;27555;50.808;4.402;2023-04-05T15:32:04;14.80;62.70
41876;DHT22;27555;50.808;4.402;2023-04-05T15:34:30;14.80;62.50
41876;DHT22;27555;50.808;4.402;2023-04-05T15:36:56;14.80;62.50
41876;DHT22;27555;50.808;4.402;2023-04-05T15:39:22;14.90;62.70
41876;DHT22;27555;50.808;4.402;2023-04-05T15:41:49;14.80;62.60
41876;DHT22;27555;50.808;4.402;2023-04-05T15:44:15;14.80;62.40
41876;DHT22;27555;50.808;4.402;2023-04-05T15:46:41;14.60;63.00
41876;DHT22;27555;50.808;4.402;2023-04-05T15:49:07;14.60;63.10
41876;DHT22;27555;50.808;4.402;2023-04-05T15:51:34;14.60;62.70
41876;DHT22;27555;50.808;4.402;2023-04-05T15:54:01;14.80;62.80
41876;DHT22;27555;50.808;4.402;2023-04-05T15:56:27;14.80;62.30
41876;DHT22;27555;50.808;4.402;2023-04-05T15:58:53;15.10;62.20
41876;DHT22;27555;50.808;4.402;2023-04-05T16:01:20;15.40;62.10
41876;DHT22;27555;50.808;4.402;2023-04-05T16:03:45;15.20;62.40
41876;DHT22;27555;50.808;4.402;2023-04-05T16:06:11;15.00;62.80
41876;DHT22;27555;50.808;4.402;2023-04-05T16:08:37;14.80;63.10